sensor_id;sensor_type;location;lat;lon;timestamp;pressure;altitude;pressure_sealevel;temperature;humidity
26192;BME280;13935;55.672;37.764;2023-11-25T00:00:39;96894.22;;;-4.42;100.00
26192;BME280;13935;55.672;37.764;2023-11-25T00:01:56;96893.13;;;-4.37;100.00
26192;BME280;13935;55.672;37.764;2023-11-25T00:03:03;96886.44;;;-4.18;100.00
26192;BME280;13935;55.672;37.764;2023-11-25T00:04:19;96889.78;;;-4.27;100.00
26192;BME280;13935;55.672;37.764;2023-11-25T00:05:34;96899.53;;;-4.20;100.00
26192;BME280;13935;55.672;37.764;2023-11-25T00:06:44;96903.75;;;-4.48;100.00
26192;BME280;13935;55.672;37.764;2023-11-25T00:08:33;96917.06;;;-4.32;100.00
26192;BME280;13935;55.672;37.764;2023-11-25T00:10:05;96913.84;;;-4.41;100.00
26192;BME280;13935;55.672;37.764;2023-11-25T00:11:17;96909.09;;;-4.51;100.00
26192;BME280;13935;55.672;37.764;2023-11-25T00:12:36;96902.03;;;-4.33;100.00
26192;BME280;13935;55.672;37.764;2023-11-25T00:13:51;96905.50;;;-4.33;100.00
26192;BME280;13935;55.672;37.764;2023-11-25T00:15:03;96909.63;;;-4.13;100.00
26192;BME280;13935;55.672;37.764;2023-11-25T00:16:16;96913.53;;;-4.11;100.00
26192;BME280;13935;55.672;37.764;2023-11-25T00:17:59;96909.69;;;-4.10;100.00
26192;BME280;13935;55.672;37.764;2023-11-25T00:19:23;96908.13;;;-4.11;100.00
26192;BME280;13935;55.672;37.764;2023-11-25T00:20:37;96912.09;;;-4.01;100.00
26192;BME280;13935;55.672;37.764;2023-11-25T00:22:02;96898.19;;;-4.07;100.00
26192;BME280;13935;55.672;37.764;2023-11-25T00:23:41;96906.50;;;-4.15;100.00
26192;BME280;13935;55.672;37.764;2023-11-25T00:24:50;96906.50;;;-4.19;100.00
26192;BME280;13935;55.672;37.764;2023-11-25T00:26:11;96905.84;;;-4.09;100.00
26192;BME280;13935;55.672;37.764;2023-11-25T00:30:14;96911.03;;;-4.23;100.00
26192;BME280;13935;55.672;37.764;2023-11-25T00:31:42;96911.47;;;-4.46;100.00
26192;BME280;13935;55.672;37.764;2023-11-25T00:33:00;96923.69;;;-4.52;100.00
26192;BME280;13935;55.672;37.764;2023-11-25T00:34:27;96924.56;;;-4.45;100.00
26192;BME280;13935;55.672;37.764;2023-11-25T00:35:51;96925.38;;;-4.44;100.00
26192;BME280;13935;55.672;37.764;2023-11-25T00:37:56;96920.41;;;-4.65;100.00
26192;BME280;13935;55.672;37.764;2023-11-25T00:41:50;96916.84;;;-4.46;100.00
26192;BME280;13935;55.672;37.764;2023-11-25T00:44:00;96916.34;;;-4.29;100.00
26192;BME280;13935;55.672;37.764;2023-11-25T00:45:50;96921.84;;;-4.23;100.00
26192;BME280;13935;55.672;37.764;2023-11-25T00:47:26;96918.91;;;-4.36;100.00
26192;BME280;13935;55.672;37.764;2023-11-25T00:49:19;96920.69;;;-4.47;100.00
26192;BME280;13935;55.672;37.764;2023-11-25T00:51:18;96920.56;;;-4.54;100.00
26192;BME280;13935;55.672;37.764;2023-11-25T00:52:31;96920.88;;;-4.59;100.00
26192;BME280;13935;55.672;37.764;2023-11-25T00:54:04;96921.66;;;-4.59;100.00
26192;BME280;13935;55.672;37.764;2023-11-25T00:55:20;96919.25;;;-4.41;100.00
26192;BME280;13935;55.672;37.764;2023-11-25T00:56:27;96922.25;;;-4.46;100.00
26192;BME280;13935;55.672;37.764;2023-11-25T00:57:52;96926.81;;;-4.50;100.00
26192;BME280;13935;55.672;37.764;2023-11-25T00:59:17;96919.13;;;-4.48;100.00
26192;BME280;13935;55.672;37.764;2023-11-25T01:00:57;96925.94;;;-4.32;100.00
26192;BME280;13935;55.672;37.764;2023-11-25T01:02:17;96926.28;;;-4.33;100.00
26192;BME280;13935;55.672;37.764;2023-11-25T01:03:35;96924.56;;;-4.19;100.00
26192;BME280;13935;55.672;37.764;2023-11-25T01:05:12;96924.69;;;-4.38;100.00
26192;BME280;13935;55.672;37.764;2023-11-25T01:06:27;96928.19;;;-4.37;100.00
26192;BME280;13935;55.672;37.764;2023-11-25T01:07:53;96925.38;;;-4.44;100.00
26192;BME280;13935;55.672;37.764;2023-11-25T01:09:28;96931.69;;;-4.33;100.00
26192;BME280;13935;55.672;37.764;2023-11-25T01:10:37;96922.88;;;-4.56;100.00
26192;BME280;13935;55.672;37.764;2023-11-25T01:12:01;96924.75;;;-4.34;100.00
26192;BME280;13935;55.672;37.764;2023-11-25T01:13:24;96931.75;;;-4.30;100.00
26192;BME280;13935;55.672;37.764;2023-11-25T01:14:57;96923.19;;;-4.35;100.00
26192;BME280;13935;55.672;37.764;2023-11-25T01:16:21;96930.41;;;-4.17;100.00
26192;BME280;13935;55.672;37.764;2023-11-25T01:17:50;96937.03;;;-4.37;100.00
26192;BME280;13935;55.672;37.764;2023-11-25T01:19:04;96927.84;;;-4.32;100.00
26192;BME280;13935;55.672;37.764;2023-11-25T01:20:44;96930.13;;;-4.34;100.00
26192;BME280;13935;55.672;37.764;2023-11-25T01:22:30;96927.00;;;-4.36;100.00
26192;BME280;13935;55.672;37.764;2023-11-25T01:23:44;96924.84;;;-4.27;100.00
26192;BME280;13935;55.672;37.764;2023-11-25T01:24:59;96926.13;;;-4.44;100.00
26192;BME280;13935;55.672;37.764;2023-11-25T01:26:17;96932.16;;;-4.28;100.00
26192;BME280;13935;55.672;37.764;2023-11-25T01:28:06;96921.53;;;-4.43;100.00
26192;BME280;13935;55.672;37.764;2023-11-25T01:29:53;96924.94;;;-4.46;100.00
26192;BME280;13935;55.672;37.764;2023-11-25T01:31:11;96932.41;;;-4.36;100.00
26192;BME280;13935;55.672;37.764;2023-11-25T01:32:48;96938.31;;;-4.27;100.00
26192;BME280;13935;55.672;37.764;2023-11-25T01:34:39;96934.59;;;-4.45;100.00
26192;BME280;13935;55.672;37.764;2023-11-25T01:36:26;96929.25;;;-4.42;100.00
26192;BME280;13935;55.672;37.764;2023-11-25T01:38:25;96938.31;;;-4.53;100.00
26192;BME280;13935;55.672;37.764;2023-11-25T01:40:18;96937.78;;;-4.62;100.00
26192;BME280;13935;55.672;37.764;2023-11-25T01:42:03;96940.19;;;-4.57;100.00
26192;BME280;13935;55.672;37.764;2023-11-25T01:43:57;96941.69;;;-4.60;100.00
26192;BME280;13935;55.672;37.764;2023-11-25T01:48:34;96953.84;;;-4.69;100.00
26192;BME280;13935;55.672;37.764;2023-11-25T01:50:10;96952.47;;;-4.60;100.00
26192;BME280;13935;55.672;37.764;2023-11-25T01:52:12;96948.38;;;-4.50;100.00
26192;BME280;13935;55.672;37.764;2023-11-25T01:54:12;96948.44;;;-4.47;100.00
26192;BME280;13935;55.672;37.764;2023-11-25T01:56:53;96949.88;;;-4.53;100.00
26192;BME280;13935;55.672;37.764;2023-11-25T02:03:14;96962.25;;;-4.48;100.00
26192;BME280;13935;55.672;37.764;2023-11-25T02:07:15;96954.72;;;-4.39;100.00
26192;BME280;13935;55.672;37.764;2023-11-25T02:08:39;96966.81;;;-4.52;100.00
26192;BME280;13935;55.672;37.764;2023-11-25T02:10:26;96968.63;;;-4.37;100.00
26192;BME280;13935;55.672;37.764;2023-11-25T02:11:59;96971.91;;;-4.47;100.00
26192;BME280;13935;55.672;37.764;2023-11-25T02:13:29;96973.03;;;-4.48;100.00
26192;BME280;13935;55.672;37.764;2023-11-25T02:15:10;96969.53;;;-4.52;100.00
26192;BME280;13935;55.672;37.764;2023-11-25T02:16:48;96978.84;;;-4.46;100.00
26192;BME280;13935;55.672;37.764;2023-11-25T02:18:46;96967.75;;;-4.41;100.00
26192;BME280;13935;55.672;37.764;2023-11-25T02:21:10;96974.34;;;-4.39;100.00
26192;BME280;13935;55.672;37.764;2023-11-25T02:23:24;96971.59;;;-4.42;100.00
26192;BME280;13935;55.672;37.764;2023-11-25T02:25:29;96974.97;;;-4.49;100.00
26192;BME280;13935;55.672;37.764;2023-11-25T02:27:08;96976.78;;;-4.56;100.00
26192;BME280;13935;55.672;37.764;2023-11-25T02:29:01;96982.63;;;-4.51;100.00
26192;BME280;13935;55.672;37.764;2023-11-25T02:31:01;96982.81;;;-4.40;100.00
26192;BME280;13935;55.672;37.764;2023-11-25T02:33:59;96985.69;;;-4.52;100.00
26192;BME280;13935;55.672;37.764;2023-11-25T02:35:56;96992.34;;;-4.46;100.00
26192;BME280;13935;55.672;37.764;2023-11-25T02:38:08;96995.47;;;-4.44;100.00
26192;BME280;13935;55.672;37.764;2023-11-25T02:40:03;96988.00;;;-4.28;100.00
26192;BME280;13935;55.672;37.764;2023-11-25T02:44:10;96990.47;;;-4.65;100.00
26192;BME280;13935;55.672;37.764;2023-11-25T02:46:01;96996.97;;;-4.47;100.00
26192;BME280;13935;55.672;37.764;2023-11-25T02:47:23;97001.69;;;-4.40;100.00
26192;BME280;13935;55.672;37.764;2023-11-25T02:48:39;97003.19;;;-4.43;100.00
26192;BME280;13935;55.672;37.764;2023-11-25T02:50:23;97006.94;;;-4.47;100.00
26192;BME280;13935;55.672;37.764;2023-11-25T02:52:04;97007.56;;;-4.57;100.00
26192;BME280;13935;55.672;37.764;2023-11-25T02:54:05;97013.72;;;-4.57;100.00
26192;BME280;13935;55.672;37.764;2023-11-25T02:55:46;97009.81;;;-4.59;100.00
26192;BME280;13935;55.672;37.764;2023-11-25T02:57:24;97010.97;;;-4.60;100.00
26192;BME280;13935;55.672;37.764;2023-11-25T02:59:13;97008.94;;;-4.67;100.00
26192;BME280;13935;55.672;37.764;2023-11-25T03:00:26;97017.25;;;-4.75;100.00
26192;BME280;13935;55.672;37.764;2023-11-25T03:02:00;97016.22;;;-4.67;100.00
26192;BME280;13935;55.672;37.764;2023-11-25T03:03:19;97015.53;;;-4.64;100.00
26192;BME280;13935;55.672;37.764;2023-11-25T03:04:56;97012.00;;;-4.68;100.00
26192;BME280;13935;55.672;37.764;2023-11-25T03:06:49;97014.97;;;-4.73;100.00
26192;BME280;13935;55.672;37.764;2023-11-25T03:08:08;97018.47;;;-4.50;100.00
26192;BME280;13935;55.672;37.764;2023-11-25T03:09:24;97013.72;;;-4.57;100.00
26192;BME280;13935;55.672;37.764;2023-11-25T03:10:41;97020.22;;;-4.80;100.00
26192;BME280;13935;55.672;37.764;2023-11-25T03:12:01;97018.69;;;-4.81;100.00
26192;BME280;13935;55.672;37.764;2023-11-25T03:13:41;97023.66;;;-4.83;100.00
26192;BME280;13935;55.672;37.764;2023-11-25T03:15:45;97034.50;;;-4.80;100.00
26192;BME280;13935;55.672;37.764;2023-11-25T03:20:10;97021.22;;;-4.69;100.00
26192;BME280;13935;55.672;37.764;2023-11-25T03:21:25;97029.56;;;-4.74;100.00
26192;BME280;13935;55.672;37.764;2023-11-25T03:22:59;97033.91;;;-4.70;100.00
26192;BME280;13935;55.672;37.764;2023-11-25T03:24:56;97032.56;;;-4.79;100.00
26192;BME280;13935;55.672;37.764;2023-11-25T03:26:49;97027.63;;;-4.96;100.00
26192;BME280;13935;55.672;37.764;2023-11-25T03:28:20;97038.09;;;-4.72;100.00
26192;BME280;13935;55.672;37.764;2023-11-25T03:33:17;97047.09;;;-4.84;100.00
26192;BME280;13935;55.672;37.764;2023-11-25T03:35:00;97045.75;;;-4.74;100.00
26192;BME280;13935;55.672;37.764;2023-11-25T03:36:48;97050.25;;;-4.59;100.00
26192;BME280;13935;55.672;37.764;2023-11-25T03:38:38;97047.28;;;-4.73;100.00
26192;BME280;13935;55.672;37.764;2023-11-25T03:41:41;97051.41;;;-4.79;100.00
26192;BME280;13935;55.672;37.764;2023-11-25T03:43:45;97053.97;;;-4.86;100.00
26192;BME280;13935;55.672;37.764;2023-11-25T03:52:02;97065.63;;;-4.82;100.00
26192;BME280;13935;55.672;37.764;2023-11-25T03:54:21;97074.91;;;-4.80;100.00
26192;BME280;13935;55.672;37.764;2023-11-25T03:56:44;97083.63;;;-5.05;100.00
26192;BME280;13935;55.672;37.764;2023-11-25T03:59:07;97080.09;;;-4.90;100.00
26192;BME280;13935;55.672;37.764;2023-11-25T04:01:15;97082.78;;;-4.90;100.00
26192;BME280;13935;55.672;37.764;2023-11-25T04:07:07;97099.94;;;-4.98;100.00
26192;BME280;13935;55.672;37.764;2023-11-25T04:09:21;97095.25;;;-5.01;100.00
26192;BME280;13935;55.672;37.764;2023-11-25T04:11:05;97096.63;;;-5.10;100.00
26192;BME280;13935;55.672;37.764;2023-11-25T04:13:15;97103.47;;;-5.13;100.00
26192;BME280;13935;55.672;37.764;2023-11-25T04:15:55;97110.34;;;-5.15;100.00
26192;BME280;13935;55.672;37.764;2023-11-25T04:18:49;97116.06;;;-5.17;100.00
26192;BME280;13935;55.672;37.764;2023-11-25T04:24:01;97127.50;;;-5.04;100.00
26192;BME280;13935;55.672;37.764;2023-11-25T04:26:14;97130.41;;;-5.13;100.00
26192;BME280;13935;55.672;37.764;2023-11-25T04:27:54;97124.81;;;-5.23;100.00
26192;BME280;13935;55.672;37.764;2023-11-25T04:30:10;97127.84;;;-5.25;100.00
26192;BME280;13935;55.672;37.764;2023-11-25T04:32:18;97125.00;;;-5.32;100.00
26192;BME280;13935;55.672;37.764;2023-11-25T04:33:59;97131.03;;;-5.19;100.00
26192;BME280;13935;55.672;37.764;2023-11-25T04:35:42;97134.78;;;-5.24;100.00
26192;BME280;13935;55.672;37.764;2023-11-25T04:37:32;97147.09;;;-5.23;100.00
26192;BME280;13935;55.672;37.764;2023-11-25T04:39:19;97150.47;;;-5.10;100.00
26192;BME280;13935;55.672;37.764;2023-11-25T04:40:46;97147.34;;;-5.12;100.00
26192;BME280;13935;55.672;37.764;2023-11-25T04:41:59;97148.66;;;-5.22;100.00
26192;BME280;13935;55.672;37.764;2023-11-25T04:43:17;97151.38;;;-5.22;100.00
26192;BME280;13935;55.672;37.764;2023-11-25T04:44:57;97151.84;;;-5.35;100.00
26192;BME280;13935;55.672;37.764;2023-11-25T04:46:44;97153.97;;;-5.25;100.00
26192;BME280;13935;55.672;37.764;2023-11-25T04:48:09;97155.47;;;-5.28;100.00
26192;BME280;13935;55.672;37.764;2023-11-25T04:52:30;97163.97;;;-5.26;100.00
26192;BME280;13935;55.672;37.764;2023-11-25T04:54:19;97159.28;;;-5.29;100.00
26192;BME280;13935;55.672;37.764;2023-11-25T04:55:42;97164.97;;;-5.15;100.00
26192;BME280;13935;55.672;37.764;2023-11-25T04:57:45;97169.34;;;-5.26;100.00
26192;BME280;13935;55.672;37.764;2023-11-25T04:59:21;97175.75;;;-5.15;100.00
26192;BME280;13935;55.672;37.764;2023-11-25T05:01:23;97176.75;;;-5.04;100.00
26192;BME280;13935;55.672;37.764;2023-11-25T05:03:27;97178.59;;;-5.08;100.00
26192;BME280;13935;55.672;37.764;2023-11-25T05:04:59;97174.63;;;-5.14;100.00
26192;BME280;13935;55.672;37.764;2023-11-25T05:06:36;97180.56;;;-5.05;100.00
26192;BME280;13935;55.672;37.764;2023-11-25T05:10:20;97191.91;;;-5.15;100.00
26192;BME280;13935;55.672;37.764;2023-11-25T05:11:56;97182.53;;;-5.21;100.00
26192;BME280;13935;55.672;37.764;2023-11-25T05:13:08;97188.94;;;-5.10;100.00
26192;BME280;13935;55.672;37.764;2023-11-25T05:14:39;97191.63;;;-5.10;100.00
26192;BME280;13935;55.672;37.764;2023-11-25T05:17:03;97201.78;;;-5.03;100.00
26192;BME280;13935;55.672;37.764;2023-11-25T05:18:19;97199.31;;;-5.12;100.00
26192;BME280;13935;55.672;37.764;2023-11-25T05:19:37;97192.50;;;-5.06;100.00
26192;BME280;13935;55.672;37.764;2023-11-25T05:21:07;97200.38;;;-4.97;100.00
26192;BME280;13935;55.672;37.764;2023-11-25T05:22:29;97199.44;;;-5.05;100.00
26192;BME280;13935;55.672;37.764;2023-11-25T05:23:38;97205.69;;;-5.01;100.00
26192;BME280;13935;55.672;37.764;2023-11-25T05:24:51;97203.00;;;-5.01;100.00
26192;BME280;13935;55.672;37.764;2023-11-25T05:26:15;97202.41;;;-5.10;100.00
26192;BME280;13935;55.672;37.764;2023-11-25T05:27:38;97204.41;;;-5.07;100.00
26192;BME280;13935;55.672;37.764;2023-11-25T05:28:58;97214.47;;;-5.04;100.00
26192;BME280;13935;55.672;37.764;2023-11-25T05:30:47;97213.06;;;-4.98;100.00
26192;BME280;13935;55.672;37.764;2023-11-25T05:35:01;97224.03;;;-5.06;100.00
26192;BME280;13935;55.672;37.764;2023-11-25T05:37:04;97235.47;;;-4.94;100.00
26192;BME280;13935;55.672;37.764;2023-11-25T05:38:43;97236.44;;;-5.02;100.00
26192;BME280;13935;55.672;37.764;2023-11-25T05:39:54;97244.44;;;-5.05;100.00
26192;BME280;13935;55.672;37.764;2023-11-25T05:41:15;97261.38;;;-5.05;100.00
26192;BME280;13935;55.672;37.764;2023-11-25T05:42:47;97247.50;;;-5.07;100.00
26192;BME280;13935;55.672;37.764;2023-11-25T05:44:00;97250.88;;;-5.10;100.00
26192;BME280;13935;55.672;37.764;2023-11-25T05:45:29;97251.22;;;-5.11;100.00
26192;BME280;13935;55.672;37.764;2023-11-25T05:46:48;97258.94;;;-5.10;100.00
26192;BME280;13935;55.672;37.764;2023-11-25T05:48:25;97258.44;;;-5.00;100.00
26192;BME280;13935;55.672;37.764;2023-11-25T05:49:39;97262.00;;;-5.11;100.00
26192;BME280;13935;55.672;37.764;2023-11-25T05:50:48;97257.63;;;-5.00;100.00
26192;BME280;13935;55.672;37.764;2023-11-25T05:52:04;97256.88;;;-5.01;100.00
26192;BME280;13935;55.672;37.764;2023-11-25T05:53:13;97262.41;;;-4.94;100.00
26192;BME280;13935;55.672;37.764;2023-11-25T05:54:39;97268.66;;;-4.90;100.00
26192;BME280;13935;55.672;37.764;2023-11-25T05:55:57;97261.78;;;-4.88;100.00
26192;BME280;13935;55.672;37.764;2023-11-25T05:57:06;97258.03;;;-4.83;100.00
26192;BME280;13935;55.672;37.764;2023-11-25T05:58:24;97264.13;;;-4.86;100.00
26192;BME280;13935;55.672;37.764;2023-11-25T05:59:27;97259.59;;;-4.82;100.00
26192;BME280;13935;55.672;37.764;2023-11-25T06:00:30;97264.63;;;-4.81;100.00
26192;BME280;13935;55.672;37.764;2023-11-25T06:01:32;97266.63;;;-4.78;100.00
26192;BME280;13935;55.672;37.764;2023-11-25T06:02:34;97273.13;;;-4.63;100.00
26192;BME280;13935;55.672;37.764;2023-11-25T06:03:37;97275.28;;;-4.69;100.00
26192;BME280;13935;55.672;37.764;2023-11-25T06:04:44;97278.06;;;-4.65;100.00
26192;BME280;13935;55.672;37.764;2023-11-25T06:05:47;97278.78;;;-4.68;100.00
26192;BME280;13935;55.672;37.764;2023-11-25T06:06:49;97269.50;;;-4.52;100.00
26192;BME280;13935;55.672;37.764;2023-11-25T06:07:55;97274.13;;;-4.52;100.00
26192;BME280;13935;55.672;37.764;2023-11-25T06:08:57;97277.16;;;-4.54;100.00
26192;BME280;13935;55.672;37.764;2023-11-25T06:10:00;97288.72;;;-4.53;100.00
26192;BME280;13935;55.672;37.764;2023-11-25T06:11:03;97285.75;;;-4.48;100.00
26192;BME280;13935;55.672;37.764;2023-11-25T06:12:08;97288.44;;;-4.48;100.00
26192;BME280;13935;55.672;37.764;2023-11-25T06:13:16;97295.41;;;-4.28;100.00
26192;BME280;13935;55.672;37.764;2023-11-25T06:14:18;97295.72;;;-4.15;100.00
26192;BME280;13935;55.672;37.764;2023-11-25T06:15:21;97297.59;;;-4.34;100.00
26192;BME280;13935;55.672;37.764;2023-11-25T06:16:28;97308.34;;;-4.19;100.00
26192;BME280;13935;55.672;37.764;2023-11-25T06:17:35;97301.09;;;-4.15;100.00
26192;BME280;13935;55.672;37.764;2023-11-25T06:18:39;97310.91;;;-4.25;100.00
26192;BME280;13935;55.672;37.764;2023-11-25T06:19:41;97308.34;;;-4.19;100.00
26192;BME280;13935;55.672;37.764;2023-11-25T06:20:48;97315.56;;;-4.23;100.00
26192;BME280;13935;55.672;37.764;2023-11-25T06:21:53;97318.28;;;-4.04;100.00
26192;BME280;13935;55.672;37.764;2023-11-25T06:22:56;97321.63;;;-4.10;100.00
26192;BME280;13935;55.672;37.764;2023-11-25T06:23:58;97324.09;;;-4.02;100.00
26192;BME280;13935;55.672;37.764;2023-11-25T06:25:02;97331.75;;;-4.04;100.00
26192;BME280;13935;55.672;37.764;2023-11-25T06:26:06;97334.38;;;-4.07;100.00
26192;BME280;13935;55.672;37.764;2023-11-25T06:27:12;97335.03;;;-4.14;100.00
26192;BME280;13935;55.672;37.764;2023-11-25T06:28:15;97329.34;;;-4.09;100.00
26192;BME280;13935;55.672;37.764;2023-11-25T06:29:17;97332.06;;;-4.09;100.00
26192;BME280;13935;55.672;37.764;2023-11-25T06:30:19;97334.59;;;-3.97;100.00
26192;BME280;13935;55.672;37.764;2023-11-25T06:31:23;97340.44;;;-4.14;100.00
26192;BME280;13935;55.672;37.764;2023-11-25T06:32:26;97338.22;;;-4.08;100.00
26192;BME280;13935;55.672;37.764;2023-11-25T06:33:29;97342.91;;;-4.05;100.00
26192;BME280;13935;55.672;37.764;2023-11-25T06:34:31;97346.97;;;-3.96;100.00
26192;BME280;13935;55.672;37.764;2023-11-25T06:35:34;97349.66;;;-3.77;100.00
26192;BME280;13935;55.672;37.764;2023-11-25T06:36:39;97356.13;;;-4.00;100.00
26192;BME280;13935;55.672;37.764;2023-11-25T06:37:42;97364.88;;;-3.88;100.00
26192;BME280;13935;55.672;37.764;2023-11-25T06:38:45;97365.56;;;-4.10;100.00
26192;BME280;13935;55.672;37.764;2023-11-25T06:39:47;97356.63;;;-4.14;100.00
26192;BME280;13935;55.672;37.764;2023-11-25T06:40:50;97359.72;;;-4.12;100.00
26192;BME280;13935;55.672;37.764;2023-11-25T06:41:53;97361.22;;;-4.14;100.00
26192;BME280;13935;55.672;37.764;2023-11-25T06:42:56;97360.44;;;-4.15;100.00
26192;BME280;13935;55.672;37.764;2023-11-25T06:43:59;97363.56;;;-4.31;100.00
26192;BME280;13935;55.672;37.764;2023-11-25T06:45:02;97366.75;;;-4.07;100.00
26192;BME280;13935;55.672;37.764;2023-11-25T06:46:05;97368.34;;;-4.40;100.00
26192;BME280;13935;55.672;37.764;2023-11-25T06:47:07;97371.34;;;-4.26;100.00
26192;BME280;13935;55.672;37.764;2023-11-25T06:48:10;97366.25;;;-4.31;100.00
26192;BME280;13935;55.672;37.764;2023-11-25T06:49:12;97372.59;;;-4.39;100.00
26192;BME280;13935;55.672;37.764;2023-11-25T06:50:15;97369.81;;;-4.09;100.00
26192;BME280;13935;55.672;37.764;2023-11-25T06:51:17;97372.81;;;-4.14;100.00
26192;BME280;13935;55.672;37.764;2023-11-25T06:52:20;97369.03;;;-4.28;100.00
26192;BME280;13935;55.672;37.764;2023-11-25T06:53:22;97385.53;;;-4.29;100.00
26192;BME280;13935;55.672;37.764;2023-11-25T06:54:24;97382.50;;;-4.28;100.00
26192;BME280;13935;55.672;37.764;2023-11-25T06:55:26;97379.13;;;-4.40;100.00
26192;BME280;13935;55.672;37.764;2023-11-25T06:56:29;97388.34;;;-4.41;100.00
26192;BME280;13935;55.672;37.764;2023-11-25T06:57:31;97386.00;;;-4.43;100.00
26192;BME280;13935;55.672;37.764;2023-11-25T06:58:34;97388.97;;;-4.48;100.00
26192;BME280;13935;55.672;37.764;2023-11-25T06:59:39;97389.59;;;-4.54;100.00
26192;BME280;13935;55.672;37.764;2023-11-25T07:00:47;97395.78;;;-4.54;100.00
26192;BME280;13935;55.672;37.764;2023-11-25T07:01:54;97395.94;;;-4.47;100.00
26192;BME280;13935;55.672;37.764;2023-11-25T07:02:56;97406.47;;;-4.57;100.00
26192;BME280;13935;55.672;37.764;2023-11-25T07:03:59;97402.88;;;-4.46;100.00
26192;BME280;13935;55.672;37.764;2023-11-25T07:05:02;97408.50;;;-4.35;100.00
26192;BME280;13935;55.672;37.764;2023-11-25T07:06:06;97404.34;;;-4.48;100.00
26192;BME280;13935;55.672;37.764;2023-11-25T07:07:09;97402.78;;;-4.49;100.00
26192;BME280;13935;55.672;37.764;2023-11-25T07:08:11;97404.63;;;-4.53;100.00
26192;BME280;13935;55.672;37.764;2023-11-25T07:09:14;97410.19;;;-4.46;100.00
26192;BME280;13935;55.672;37.764;2023-11-25T07:10:24;97404.69;;;-4.34;100.00
26192;BME280;13935;55.672;37.764;2023-11-25T07:11:27;97411.75;;;-4.45;100.00
26192;BME280;13935;55.672;37.764;2023-11-25T07:12:36;97411.00;;;-4.27;100.00
26192;BME280;13935;55.672;37.764;2023-11-25T07:13:40;97408.84;;;-4.22;100.00
26192;BME280;13935;55.672;37.764;2023-11-25T07:14:43;97412.81;;;-4.16;100.00
26192;BME280;13935;55.672;37.764;2023-11-25T07:15:48;97412.09;;;-3.97;100.00
26192;BME280;13935;55.672;37.764;2023-11-25T07:16:59;97420.47;;;-3.83;100.00
26192;BME280;13935;55.672;37.764;2023-11-25T07:18:01;97424.44;;;-3.77;100.00
26192;BME280;13935;55.672;37.764;2023-11-25T07:19:05;97422.41;;;-3.65;100.00
26192;BME280;13935;55.672;37.764;2023-11-25T07:20:11;97430.22;;;-3.60;100.00
26192;BME280;13935;55.672;37.764;2023-11-25T07:21:19;97432.34;;;-3.50;100.00
26192;BME280;13935;55.672;37.764;2023-11-25T07:22:22;97439.81;;;-3.44;100.00
26192;BME280;13935;55.672;37.764;2023-11-25T07:23:24;97445.22;;;-3.44;100.00
26192;BME280;13935;55.672;37.764;2023-11-25T07:24:28;97444.56;;;-3.37;100.00
26192;BME280;13935;55.672;37.764;2023-11-25T07:25:35;97448.34;;;-3.42;100.00
26192;BME280;13935;55.672;37.764;2023-11-25T07:26:44;97449.25;;;-3.34;100.00
26192;BME280;13935;55.672;37.764;2023-11-25T07:28:03;97456.22;;;-3.71;100.00
26192;BME280;13935;55.672;37.764;2023-11-25T07:29:13;97461.22;;;-3.88;100.00
26192;BME280;13935;55.672;37.764;2023-11-25T07:30:23;97467.53;;;-3.81;100.00
26192;BME280;13935;55.672;37.764;2023-11-25T07:31:53;97467.19;;;-3.98;100.00
26192;BME280;13935;55.672;37.764;2023-11-25T07:32:58;97475.13;;;-4.21;100.00
26192;BME280;13935;55.672;37.764;2023-11-25T07:34:07;97474.41;;;-4.18;100.00
26192;BME280;13935;55.672;37.764;2023-11-25T07:35:39;97482.50;;;-4.18;100.00
26192;BME280;13935;55.672;37.764;2023-11-25T07:36:53;97480.69;;;-4.14;100.00
26192;BME280;13935;55.672;37.764;2023-11-25T07:38:33;97477.75;;;-4.39;100.00
26192;BME280;13935;55.672;37.764;2023-11-25T07:40:16;97489.13;;;-4.15;100.00
26192;BME280;13935;55.672;37.764;2023-11-25T07:41:31;97488.28;;;-4.19;100.00
26192;BME280;13935;55.672;37.764;2023-11-25T07:42:53;97487.22;;;-4.15;100.00
26192;BME280;13935;55.672;37.764;2023-11-25T07:44:04;97493.91;;;-4.09;100.00
26192;BME280;13935;55.672;37.764;2023-11-25T07:45:12;97491.47;;;-3.98;100.00
26192;BME280;13935;55.672;37.764;2023-11-25T07:46:22;97494.78;;;-4.05;100.00
26192;BME280;13935;55.672;37.764;2023-11-25T07:47:37;97488.53;;;-4.09;100.00
26192;BME280;13935;55.672;37.764;2023-11-25T07:48:47;97507.13;;;-4.04;100.00
26192;BME280;13935;55.672;37.764;2023-11-25T07:50:03;97505.47;;;-4.08;100.00
26192;BME280;13935;55.672;37.764;2023-11-25T07:51:35;97505.22;;;-4.03;100.00
26192;BME280;13935;55.672;37.764;2023-11-25T07:52:54;97509.88;;;-3.85;100.00
26192;BME280;13935;55.672;37.764;2023-11-25T07:54:38;97508.50;;;-3.94;100.00
26192;BME280;13935;55.672;37.764;2023-11-25T07:55:55;97530.34;;;-3.50;100.00
26192;BME280;13935;55.672;37.764;2023-11-25T07:57:17;97517.28;;;-3.48;100.00
26192;BME280;13935;55.672;37.764;2023-11-25T07:58:44;97526.22;;;-3.44;100.00
26192;BME280;13935;55.672;37.764;2023-11-25T08:00:04;97524.03;;;-3.38;100.00
26192;BME280;13935;55.672;37.764;2023-11-25T08:01:14;97534.44;;;-3.21;100.00
26192;BME280;13935;55.672;37.764;2023-11-25T08:02:26;97533.44;;;-3.13;100.00
26192;BME280;13935;55.672;37.764;2023-11-25T08:03:35;97534.56;;;-3.14;100.00
26192;BME280;13935;55.672;37.764;2023-11-25T08:05:01;97542.50;;;-3.40;100.00
26192;BME280;13935;55.672;37.764;2023-11-25T08:06:27;97544.19;;;-3.17;100.00
26192;BME280;13935;55.672;37.764;2023-11-25T08:07:36;97546.06;;;-3.36;100.00
26192;BME280;13935;55.672;37.764;2023-11-25T08:08:47;97549.47;;;-3.39;100.00
26192;BME280;13935;55.672;37.764;2023-11-25T08:10:01;97555.13;;;-3.44;100.00
26192;BME280;13935;55.672;37.764;2023-11-25T08:11:26;97552.22;;;-3.20;100.00
26192;BME280;13935;55.672;37.764;2023-11-25T08:12:33;97555.13;;;-3.44;100.00